Time;durP1;ratioP1;P1;durP2;ratioP2;P2;SDS_P1;SDS_P2;PMS_P1;PMS_P2;Temp;Humidity;BMP_temperature;BMP_pressure;BME280_temperature;BME280_humidity;BME280_pressure;Samples;Min_cycle;Max_cycle;Signal;HPM_P1;HPM_P2
2021/12/13 00:01:41;;;;;;;44.50;25.17;;;4.80;99.90;;;;;;4728542;28;10000081;-71
2021/12/13 00:04:10;;;;;;;42.65;24.90;;;4.80;99.90;;;;;;5079696;28;20114;-71
2021/12/13 00:06:46;;;;;;;43.40;24.83;;;4.70;99.90;;;;;;5089850;28;20111;-71
2021/12/13 00:09:15;;;;;;;45.25;25.55;;;4.70;99.90;;;;;;5088001;28;20473;-71
2021/12/13 00:11:47;;;;;;;43.08;24.13;;;4.80;99.90;;;;;;5098300;28;20028;-71
2021/12/13 00:14:19;;;;;;;50.20;25.80;;;4.70;99.90;;;;;;5076837;28;20028;-71
2021/12/13 00:16:48;;;;;;;44.63;25.17;;;4.70;99.90;;;;;;5089133;28;20027;-71
2021/12/13 00:19:20;;;;;;;47.65;25.20;;;4.80;99.90;;;;;;5095551;28;20024;-72
2021/12/13 00:21:58;;;;;;;48.85;26.27;;;4.70;99.90;;;;;;5082106;28;20023;-72
2021/12/13 00:24:27;;;;;;;48.08;26.35;;;4.80;99.90;;;;;;5092979;28;20089;-71
2021/12/13 00:27:05;;;;;;;51.15;26.42;;;4.80;99.90;;;;;;5087729;28;20077;-71
2021/12/13 00:29:56;;;;;;;48.55;26.17;;;4.80;99.90;;;;;;5074742;28;20046;-71
2021/12/13 00:32:46;;;;;;;48.13;24.60;;;4.80;99.90;;;;;;5097593;28;20094;-71
2021/12/13 00:35:21;;;;;;;49.95;26.55;;;4.80;99.90;;;;;;5070053;28;20474;-72
2021/12/13 00:37:51;;;;;;;49.75;26.00;;;4.80;99.90;;;;;;5068220;28;20040;-72
2021/12/13 00:40:22;;;;;;;48.58;25.65;;;4.70;99.90;;;;;;5077178;28;20035;-71
2021/12/13 00:43:30;;;;;;;50.10;26.35;;;4.80;99.90;;;;;;5073101;28;20036;-71
2021/12/13 00:46:09;;;;;;;48.55;25.98;;;4.80;99.90;;;;;;5073618;28;20067;-70
2021/12/13 00:48:38;;;;;;;49.33;26.50;;;4.80;99.90;;;;;;5072258;28;20043;-71
2021/12/13 00:51:10;;;;;;;50.05;25.92;;;4.80;99.90;;;;;;5069807;28;20113;-71
2021/12/13 00:53:49;;;;;;;51.40;26.05;;;4.80;99.90;;;;;;5074727;28;20024;-71
2021/12/13 00:56:45;;;;;;;53.35;26.38;;;4.80;99.90;;;;;;5075556;28;20047;-71
2021/12/13 00:59:20;;;;;;;53.75;25.58;;;4.80;99.90;;;;;;5077377;28;20035;-71
2021/12/13 01:02:02;;;;;;;46.10;25.65;;;4.80;99.90;;;;;;5073335;28;20028;-71
2021/12/13 01:04:58;;;;;;;47.97;25.80;;;4.80;99.90;;;;;;5067429;28;20119;-71
2021/12/13 01:07:33;;;;;;;50.95;26.33;;;4.80;99.90;;;;;;5079933;28;20386;-71
2021/12/13 01:10:23;;;;;;;51.00;25.02;;;4.80;99.90;;;;;;5079543;28;20077;-71
2021/12/13 01:12:52;;;;;;;50.83;25.10;;;4.80;99.90;;;;;;5070731;28;20493;-71
2021/12/13 01:15:39;;;;;;;49.15;24.67;;;4.80;99.90;;;;;;5073594;28;20047;-71
2021/12/13 01:18:28;;;;;;;46.55;24.67;;;4.80;99.90;;;;;;5072229;28;20705;-71
2021/12/13 01:21:29;;;;;;;52.58;26.58;;;4.80;99.90;;;;;;5070911;28;20037;-71
2021/12/13 01:24:05;;;;;;;55.20;26.23;;;4.80;99.90;;;;;;5082623;28;20057;-71
2021/12/13 01:26:38;;;;;;;60.40;28.13;;;4.80;99.90;;;;;;5074582;28;20386;-72
2021/12/13 01:29:17;;;;;;;54.97;27.60;;;4.90;99.90;;;;;;5076075;28;20118;-71
2021/12/13 01:31:59;;;;;;;49.28;25.95;;;4.80;99.90;;;;;;5077478;28;20398;-71
2021/12/13 01:34:28;;;;;;;52.70;26.42;;;4.80;99.90;;;;;;5098040;28;20097;-71
2021/12/13 01:37:09;;;;;;;51.70;26.33;;;4.90;99.90;;;;;;5102275;28;20024;-71
2021/12/13 01:39:38;;;;;;;56.70;27.42;;;4.90;99.90;;;;;;5092282;28;20020;-71
2021/12/13 01:42:11;;;;;;;50.50;25.90;;;4.90;99.90;;;;;;5100378;28;20035;-72
2021/12/13 01:44:44;;;;;;;47.67;25.33;;;4.90;99.90;;;;;;5093665;28;20110;-72
2021/12/13 01:47:15;;;;;;;55.80;26.90;;;4.90;99.90;;;;;;5104385;28;20036;-71
2021/12/13 01:49:53;;;;;;;54.58;26.50;;;4.90;99.90;;;;;;5098152;28;20035;-72
2021/12/13 01:52:27;;;;;;;52.58;25.90;;;4.90;99.90;;;;;;5095690;28;20024;-72
2021/12/13 01:54:56;;;;;;;58.22;27.10;;;4.90;99.90;;;;;;5101537;28;20386;-71
2021/12/13 01:57:27;;;;;;;54.50;25.80;;;4.90;99.90;;;;;;5099530;28;20542;-71
2021/12/13 02:00:09;;;;;;;50.72;25.73;;;4.90;99.90;;;;;;5105000;28;20397;-71
2021/12/13 02:02:41;;;;;;;57.75;26.98;;;4.90;99.90;;;;;;5101375;28;20429;-71
2021/12/13 02:05:17;;;;;;;46.10;24.45;;;5.00;99.90;;;;;;5093083;28;20402;-71
2021/12/13 02:07:51;;;;;;;53.25;26.20;;;5.00;99.90;;;;;;5096183;28;20499;-72
2021/12/13 02:10:29;;;;;;;49.00;26.02;;;4.90;99.90;;;;;;5105422;28;20024;-71
2021/12/13 02:13:02;;;;;;;49.75;25.25;;;5.00;99.90;;;;;;5103392;28;20012;-71
2021/12/13 02:18:22;;;;;;;52.60;24.90;;;5.00;99.90;;;;;;5097780;28;20047;-71
2021/12/13 02:21:04;;;;;;;47.53;24.60;;;5.00;99.90;;;;;;5096172;28;20054;-71
2021/12/13 02:23:36;;;;;;;45.88;24.40;;;5.00;99.90;;;;;;5099274;28;20138;-71
2021/12/13 02:26:03;;;;;;;36.00;19.87;;;5.00;99.90;;;;;;5100895;28;20066;-71
2021/12/13 02:28:33;;;;;;;48.30;25.27;;;5.00;99.90;;;;;;5099529;28;20036;-71
2021/12/13 02:31:13;;;;;;;47.97;25.48;;;7.10;99.90;;;;;;5104207;28;20476;-71
2021/12/13 02:33:44;;;;;;;50.58;24.92;;;3.80;99.90;;;;;;5105704;27;20048;-71
2021/12/13 02:36:15;;;;;;;48.33;24.80;;;;;;;;;;5104840;28;20469;-71
2021/12/13 02:38:42;;;;;;;48.47;25.33;;;4.90;99.90;;;;;;5094480;28;20473;-72
2021/12/13 02:41:09;;;;;;;49.75;25.15;;;4.80;99.90;;;;;;5097625;28;20070;-71
2021/12/13 02:43:44;;;;;;;51.78;25.98;;;6.20;99.90;;;;;;5104085;28;20595;-72
2021/12/13 02:46:11;;;;;;;45.70;24.85;;;;;;;;;;5105145;28;20028;-72
2021/12/13 02:48:45;;;;;;;46.75;24.75;;;;;;;;;;5095404;27;20020;-71
2021/12/13 02:51:20;;;;;;;48.55;26.35;;;;;;;;;;5103299;28;20127;-71
2021/12/13 02:53:57;;;;;;;49.35;24.25;;;;;;;;;;5099733;28;20020;-71
2021/12/13 02:56:33;;;;;;;47.35;24.85;;;5.20;99.90;;;;;;5103409;28;20102;-71
2021/12/13 02:58:59;;;;;;;46.08;24.85;;;5.20;99.90;;;;;;5094936;27;20552;-71
2021/12/13 03:01:38;;;;;;;45.22;24.90;;;5.20;99.90;;;;;;5095547;28;20546;-72
2021/12/13 03:04:09;;;;;;;48.45;24.52;;;5.10;99.90;;;;;;5096681;28;20035;-71
2021/12/13 03:06:40;;;;;;;44.47;23.45;;;5.20;99.90;;;;;;5091616;28;20031;-72
2021/12/13 03:09:13;;;;;;;47.72;25.55;;;5.10;99.90;;;;;;5096018;28;20495;-71
2021/12/13 03:11:39;;;;;;;47.22;24.38;;;;;;;;;;5097453;27;20031;-71
2021/12/13 03:14:10;;;;;;;48.45;24.67;;;5.10;99.90;;;;;;5094694;28;20110;-71
2021/12/13 03:17:01;;;;;;;47.47;24.52;;;5.10;99.90;;;;;;5090218;27;20177;-71
2021/12/13 03:19:37;;;;;;;45.88;24.40;;;5.20;99.90;;;;;;5097491;27;20024;-71
2021/12/13 03:22:22;;;;;;;47.20;24.23;;;5.20;99.90;;;;;;5097320;27;20049;-71
2021/12/13 03:25:08;;;;;;;43.58;22.80;;;5.10;99.90;;;;;;5093551;27;20576;-72
2021/12/13 03:27:56;;;;;;;45.13;23.85;;;5.10;99.90;;;;;;5097831;28;20404;-71
2021/12/13 03:30:31;;;;;;;46.72;24.75;;;5.10;99.90;;;;;;5094022;28;20016;-71
2021/12/13 03:33:02;;;;;;;50.72;25.08;;;5.20;99.90;;;;;;5096390;28;20707;-70
2021/12/13 03:35:39;;;;;;;49.00;24.98;;;5.10;99.90;;;;;;5093652;27;20016;-72
2021/12/13 03:38:15;;;;;;;44.75;23.40;;;5.20;99.90;;;;;;5089010;28;20035;-71
2021/12/13 03:40:41;;;;;;;48.70;24.60;;;5.20;99.90;;;;;;5090587;28;20424;-71
2021/12/13 03:43:14;;;;;;;47.65;24.30;;;5.20;99.90;;;;;;5091799;27;20024;-71
2021/12/13 03:45:47;;;;;;;48.83;24.98;;;5.20;99.90;;;;;;5098008;27;20028;-71
2021/12/13 03:48:16;;;;;;;48.28;25.10;;;5.20;99.90;;;;;;5096014;28;20028;-71
2021/12/13 03:50:46;;;;;;;50.10;25.75;;;5.20;99.90;;;;;;5095718;28;20020;-71
2021/12/13 03:53:22;;;;;;;47.35;23.95;;;5.20;99.90;;;;;;5093008;27;20042;-71
2021/12/13 03:55:51;;;;;;;48.92;24.10;;;5.20;99.90;;;;;;5101838;28;20024;-71
2021/12/13 03:58:20;;;;;;;50.85;24.98;;;5.20;99.90;;;;;;5101178;28;20024;-71
2021/12/13 04:01:00;;;;;;;45.33;22.50;;;5.20;99.90;;;;;;5103300;28;20054;-71
2021/12/13 04:03:28;;;;;;;50.67;23.77;;;5.20;99.90;;;;;;5101710;28;20039;-71
2021/12/13 04:05:55;;;;;;;47.10;23.42;;;5.20;99.90;;;;;;5105149;28;20114;-71
2021/12/13 04:08:22;;;;;;;49.08;24.42;;;5.20;99.90;;;;;;5098628;28;20024;-71
2021/12/13 04:10:54;;;;;;;46.45;22.60;;;5.20;99.90;;;;;;5093705;28;20047;-71
2021/12/13 04:13:26;;;;;;;54.53;24.50;;;5.20;99.90;;;;;;5098941;28;20427;-71
2021/12/13 04:16:15;;;;;;;48.60;22.95;;;5.30;99.90;;;;;;5108528;28;20027;-72
2021/12/13 04:21:27;;;;;;;54.60;25.60;;;5.20;99.90;;;;;;5098464;28;20059;-71
2021/12/13 04:24:00;;;;;;;49.50;24.45;;;5.20;99.90;;;;;;5096588;28;20027;-71
2021/12/13 04:26:27;;;;;;;52.22;25.38;;;5.30;99.90;;;;;;5102847;28;20035;-71
2021/12/13 04:28:58;;;;;;;50.72;25.02;;;5.20;99.90;;;;;;5102509;28;20102;-71
2021/12/13 04:31:30;;;;;;;55.15;25.92;;;5.20;99.90;;;;;;5108741;28;20028;-71
2021/12/13 04:34:02;;;;;;;46.03;24.20;;;5.20;99.90;;;;;;5095564;28;20062;-71
2021/12/13 04:36:39;;;;;;;49.65;24.10;;;5.20;99.90;;;;;;5096233;28;20408;-71
2021/12/13 04:39:18;;;;;;;44.65;23.35;;;5.20;99.90;;;;;;5106646;28;20374;-71
2021/12/13 04:41:49;;;;;;;53.17;24.88;;;5.20;99.90;;;;;;5097317;28;20613;-71
2021/12/13 04:44:25;;;;;;;51.63;24.35;;;5.30;99.90;;;;;;5100622;28;20038;-71
2021/12/13 04:46:53;;;;;;;51.65;25.15;;;5.20;99.90;;;;;;5102593;28;20036;-71
2021/12/13 04:49:22;;;;;;;54.53;24.40;;;5.20;99.90;;;;;;5103292;28;20061;-71
2021/12/13 04:52:02;;;;;;;53.80;24.13;;;5.30;99.90;;;;;;5099393;28;20023;-71
2021/12/13 04:54:31;;;;;;;54.42;23.95;;;5.30;99.90;;;;;;5097246;28;20024;-71
2021/12/13 04:56:58;;;;;;;53.92;24.63;;;5.30;99.90;;;;;;5093725;28;20032;-71
2021/12/13 04:59:26;;;;;;;52.40;24.67;;;5.30;99.90;;;;;;5098334;28;20374;-71
2021/12/13 05:01:55;;;;;;;47.92;24.00;;;5.30;99.90;;;;;;5089925;28;20254;-71
2021/12/13 05:04:22;;;;;;;53.38;25.65;;;5.30;99.90;;;;;;5095903;28;20028;-71
2021/12/13 05:06:50;;;;;;;50.30;25.35;;;5.30;99.90;;;;;;5099550;28;20055;-71
2021/12/13 05:09:19;;;;;;;54.65;25.67;;;5.30;99.90;;;;;;5100450;28;20027;-71
2021/12/13 05:11:48;;;;;;;55.85;24.92;;;5.30;99.90;;;;;;5090359;28;20114;-71
2021/12/13 05:14:15;;;;;;;53.28;25.13;;;5.30;99.90;;;;;;5098163;28;20093;-71
2021/12/13 05:16:53;;;;;;;52.55;24.70;;;5.30;99.90;;;;;;5095663;28;20044;-71
2021/12/13 05:19:34;;;;;;;51.88;25.02;;;5.30;99.90;;;;;;5090129;28;20047;-71
2021/12/13 05:22:02;;;;;;;56.85;25.10;;;5.30;99.90;;;;;;5090127;28;20028;-71
2021/12/13 05:24:32;;;;;;;54.47;23.85;;;5.30;99.90;;;;;;5096834;28;20028;-71
2021/12/13 05:27:10;;;;;;;56.70;24.02;;;5.30;99.90;;;;;;5093644;28;20028;-71
2021/12/13 05:29:46;;;;;;;54.15;24.77;;;5.30;99.90;;;;;;5105185;28;20031;-71
2021/12/13 05:32:14;;;;;;;62.42;26.30;;;5.30;99.90;;;;;;5105414;28;20103;-71
2021/12/13 05:35:01;;;;;;;55.88;24.05;;;5.30;99.90;;;;;;5095283;28;20068;-71
2021/12/13 05:37:40;;;;;;;65.20;25.02;;;5.30;99.90;;;;;;5102721;28;20032;-71
2021/12/13 05:40:11;;;;;;;56.75;24.48;;;5.30;99.90;;;;;;5098113;28;20262;-71
2021/12/13 05:42:48;;;;;;;68.70;26.23;;;5.30;99.90;;;;;;5098924;28;20467;-71
2021/12/13 05:45:18;;;;;;;59.95;25.10;;;5.40;99.90;;;;;;5101208;28;20066;-71
2021/12/13 05:48:05;;;;;;;66.38;26.50;;;5.40;99.90;;;;;;5099870;28;20024;-71
2021/12/13 05:50:39;;;;;;;58.20;24.33;;;5.40;99.90;;;;;;5099113;28;20023;-70
2021/12/13 05:53:10;;;;;;;55.92;24.48;;;5.40;99.90;;;;;;5096385;28;20031;-71
2021/12/13 05:55:46;;;;;;;56.70;24.65;;;5.40;99.90;;;;;;5094569;28;20024;-71
2021/12/13 05:58:13;;;;;;;55.80;24.58;;;5.40;99.90;;;;;;5097583;28;20057;-71
2021/12/13 06:00:41;;;;;;;51.78;24.25;;;5.40;99.90;;;;;;5099704;28;20024;-71
2021/12/13 06:03:17;;;;;;;57.78;25.15;;;5.40;99.90;;;;;;5093198;28;20557;-71
2021/12/13 06:05:52;;;;;;;55.20;24.95;;;5.40;99.90;;;;;;5096171;28;20032;-71
2021/12/13 06:08:24;;;;;;;52.72;24.13;;;5.40;99.90;;;;;;5107124;27;20031;-71
2021/12/13 06:10:52;;;;;;;51.70;23.93;;;5.40;99.90;;;;;;5107135;28;20019;-71
2021/12/13 06:13:42;;;;;;;55.50;25.33;;;5.50;99.90;;;;;;5098186;28;20335;-71
2021/12/13 06:16:37;;;;;;;61.75;24.73;;;5.50;99.90;;;;;;5104516;27;20450;-71
2021/12/13 06:19:09;;;;;;;58.40;24.65;;;5.40;99.90;;;;;;5106770;28;20035;-71
2021/12/13 06:21:40;;;;;;;58.35;24.77;;;5.40;99.90;;;;;;5101138;28;20031;-71
2021/12/13 06:24:07;;;;;;;65.80;26.10;;;5.40;99.90;;;;;;5111514;28;20027;-71
2021/12/13 06:26:33;;;;;;;62.00;25.45;;;5.40;99.90;;;;;;5097634;28;20038;-71
2021/12/13 06:29:02;;;;;;;60.35;24.95;;;5.40;99.90;;;;;;5101681;28;20027;-71
2021/12/13 06:31:43;;;;;;;62.67;25.33;;;5.40;99.90;;;;;;5103847;28;20031;-72
2021/12/13 06:34:13;;;;;;;60.25;24.92;;;5.40;99.90;;;;;;5099957;28;20560;-71
2021/12/13 06:36:38;;;;;;;62.67;25.70;;;5.40;99.90;;;;;;5101683;27;20027;-71
2021/12/13 06:39:16;;;;;;;51.97;22.58;;;5.50;99.90;;;;;;5096663;28;20030;-71
2021/12/13 06:41:46;;;;;;;71.10;25.85;;;5.40;99.90;;;;;;5103138;28;20039;-72
2021/12/13 06:44:29;;;;;;;63.35;24.77;;;5.50;99.90;;;;;;5109745;28;20023;-72
2021/12/13 06:46:55;;;;;;;65.65;25.58;;;5.50;99.90;;;;;;5109366;28;20036;-71
2021/12/13 06:49:28;;;;;;;68.90;25.60;;;5.40;99.90;;;;;;5105223;28;20027;-72
2021/12/13 06:52:05;;;;;;;63.08;24.88;;;5.40;99.90;;;;;;5101201;28;20500;-71
2021/12/13 06:54:46;;;;;;;66.20;25.15;;;5.40;99.90;;;;;;5108283;28;20020;-71
2021/12/13 06:57:30;;;;;;;70.53;26.20;;;5.40;99.90;;;;;;5103275;28;20435;-71
2021/12/13 07:00:22;;;;;;;67.22;25.90;;;5.40;99.90;;;;;;5102873;28;20039;-71
2021/12/13 07:02:52;;;;;;;73.20;25.73;;;5.40;99.90;;;;;;5094561;28;20118;-71
2021/12/13 07:05:40;;;;;;;67.82;25.60;;;5.40;99.90;;;;;;5106351;28;20071;-71
2021/12/13 07:08:16;;;;;;;65.28;24.25;;;5.40;99.90;;;;;;5100009;28;20035;-71
2021/12/13 07:10:55;;;;;;;65.05;25.52;;;5.50;99.90;;;;;;5100591;28;20038;-71
2021/12/13 07:14:00;;;;;;;68.55;25.70;;;5.50;99.90;;;;;;5099352;28;20047;-71
2021/12/13 07:16:32;;;;;;;59.67;24.13;;;5.50;99.90;;;;;;5038101;28;20037;-71
2021/12/13 07:19:21;;;;;;;59.70;24.23;;;5.50;99.90;;;;;;5095576;28;20424;-71
2021/12/13 07:21:59;;;;;;;54.92;23.55;;;5.50;99.90;;;;;;5104351;28;20016;-71
2021/12/13 07:24:40;;;;;;;55.20;24.25;;;5.50;99.90;;;;;;5102686;28;20485;-71
2021/12/13 07:27:17;;;;;;;54.83;23.20;;;5.50;99.90;;;;;;5103148;28;20035;-71
2021/12/13 07:30:22;;;;;;;49.17;22.48;;;5.60;99.90;;;;;;5102918;28;20019;-71
2021/12/13 07:32:53;;;;;;;52.80;23.45;;;5.60;99.90;;;;;;5000005;28;20899;-71
2021/12/13 07:35:47;;;;;;;51.78;22.20;;;5.60;99.90;;;;;;5063255;28;20047;-70
2021/12/13 07:38:19;;;;;;;52.03;21.75;;;5.60;99.90;;;;;;5076608;28;20032;-70
2021/12/13 07:41:00;;;;;;;53.92;24.00;;;5.60;99.90;;;;;;5078411;28;20107;-71
2021/12/13 07:43:29;;;;;;;49.42;21.90;;;5.60;99.90;;;;;;5085724;28;20024;-71
2021/12/13 07:46:11;;;;;;;55.15;23.80;;;5.60;99.90;;;;;;5072998;28;20035;-71
2021/12/13 07:48:40;;;;;;;43.53;18.43;;;5.60;99.90;;;;;;5087305;28;20016;-70
2021/12/13 07:51:10;;;;;;;51.38;22.90;;;5.60;99.90;;;;;;5082851;28;20266;-70
2021/12/13 07:53:57;;;;;;;55.03;23.27;;;5.60;99.90;;;;;;5081838;28;20020;-70
2021/12/13 07:56:28;;;;;;;54.67;22.20;;;5.60;99.90;;;;;;5085671;28;20303;-71
2021/12/13 07:59:26;;;;;;;53.88;21.42;;;5.60;99.90;;;;;;5087811;28;20017;-71
2021/12/13 08:02:08;;;;;;;54.08;22.67;;;5.70;99.90;;;;;;5078839;28;20081;-71
2021/12/13 08:04:48;;;;;;;46.08;21.63;;;5.70;99.90;;;;;;5083713;28;20085;-71
2021/12/13 08:07:25;;;;;;;44.17;21.45;;;5.80;99.90;;;;;;5080571;28;20032;-70
2021/12/13 08:10:33;;;;;;;44.75;20.63;;;5.70;99.90;;;;;;5088796;28;20500;-70
2021/12/13 08:13:06;;;;;;;45.28;20.73;;;5.80;99.90;;;;;;5082159;28;20075;-71
2021/12/13 08:15:54;;;;;;;44.78;21.60;;;5.80;99.90;;;;;;5083509;28;20016;-70
2021/12/13 08:18:23;;;;;;;45.33;20.58;;;5.80;99.90;;;;;;5086568;28;20035;-70
2021/12/13 08:20:56;;;;;;;44.67;22.38;;;5.90;99.90;;;;;;5078379;28;20101;-70
2021/12/13 08:23:29;;;;;;;47.10;24.30;;;5.80;99.90;;;;;;5082848;28;20039;-70
2021/12/13 08:26:00;;;;;;;47.30;25.08;;;5.90;99.90;;;;;;5077529;28;20035;-70
2021/12/13 08:28:43;;;;;;;45.00;21.92;;;5.90;99.90;;;;;;5078316;28;20033;-70
2021/12/13 08:31:19;;;;;;;46.10;23.63;;;5.90;99.90;;;;;;5079879;28;20024;-71
2021/12/13 08:33:52;;;;;;;47.65;25.42;;;6.00;99.90;;;;;;5090924;28;20505;-70
2021/12/13 08:36:31;;;;;;;37.80;20.05;;;6.00;99.90;;;;;;5104087;28;20080;-71
2021/12/13 08:39:14;;;;;;;44.10;20.83;;;6.00;99.90;;;;;;5104232;28;20015;-71
2021/12/13 08:42:21;;;;;;;36.92;19.88;;;6.00;99.90;;;;;;5104312;28;20035;-70
2021/12/13 08:45:03;;;;;;;39.88;20.63;;;6.00;99.90;;;;;;5021558;28;20438;-70
2021/12/13 08:47:44;;;;;;;39.47;19.80;;;6.00;99.90;;;;;;5016732;28;20036;-70
2021/12/13 08:50:18;;;;;;;38.38;19.45;;;6.10;99.90;;;;;;5075907;28;20043;-71
2021/12/13 08:52:45;;;;;;;38.50;21.48;;;6.10;99.90;;;;;;5103716;28;20042;-71
2021/12/13 08:55:11;;;;;;;42.38;22.42;;;6.10;99.90;;;;;;5097426;28;20051;-71
2021/12/13 08:58:03;;;;;;;39.53;21.38;;;6.10;99.90;;;;;;5091675;28;20470;-71
2021/12/13 09:00:48;;;;;;;42.55;23.40;;;6.10;99.90;;;;;;5101179;28;20485;-71
2021/12/13 09:03:24;;;;;;;43.45;23.63;;;6.10;99.90;;;;;;5099637;28;20119;-71
2021/12/13 09:06:20;;;;;;;41.50;22.30;;;6.10;99.90;;;;;;5101923;28;20102;-71
2021/12/13 09:09:12;;;;;;;39.22;21.08;;;6.20;99.90;;;;;;5104410;28;20035;-73
2021/12/13 09:11:58;;;;;;;39.50;19.75;;;6.20;99.90;;;;;;5093775;28;20028;-71
2021/12/13 09:14:23;;;;;;;40.53;20.27;;;6.20;99.90;;;;;;5103304;28;20656;-72
2021/12/13 09:17:21;;;;;;;36.90;19.77;;;6.20;99.90;;;;;;5103892;28;20047;-73
2021/12/13 09:19:50;;;;;;;43.53;25.08;;;6.20;99.90;;;;;;5103217;28;20019;-73
2021/12/13 09:22:21;;;;;;;42.78;24.95;;;6.20;99.90;;;;;;5103067;28;20049;-71
2021/12/13 09:24:47;;;;;;;39.53;20.52;;;6.20;99.90;;;;;;5097998;28;20055;-71
2021/12/13 09:27:18;;;;;;;40.85;20.73;;;6.20;99.90;;;;;;5106920;28;20490;-73
2021/12/13 09:30:13;;;;;;;38.85;19.80;;;6.30;99.90;;;;;;5103314;28;20080;-72
2021/12/13 09:32:43;;;;;;;46.22;23.92;;;6.30;99.90;;;;;;5097840;28;20031;-71
2021/12/13 09:35:28;;;;;;;83.95;35.17;;;6.30;99.90;;;;;;5090679;28;20497;-72
2021/12/13 09:37:57;;;;;;;55.83;26.67;;;6.40;99.90;;;;;;5105100;28;20042;-71
2021/12/13 09:40:39;;;;;;;46.45;21.20;;;6.40;99.90;;;;;;5104677;28;20031;-70
2021/12/13 09:43:06;;;;;;;37.92;19.35;;;6.40;99.90;;;;;;5103927;28;20066;-71
2021/12/13 09:45:47;;;;;;;37.58;18.30;;;6.40;99.90;;;;;;5109026;28;20035;-71
2021/12/13 09:48:31;;;;;;;35.55;18.77;;;6.50;99.90;;;;;;5110085;28;20036;-70
2021/12/13 09:51:05;;;;;;;36.28;17.85;;;6.50;99.90;;;;;;5101245;28;20031;-71
2021/12/13 09:53:35;;;;;;;34.50;19.02;;;6.50;99.90;;;;;;5092802;28;20032;-72
2021/12/13 09:56:06;;;;;;;33.20;18.80;;;6.60;99.90;;;;;;5105940;28;20027;-72
2021/12/13 09:58:49;;;;;;;36.42;19.30;;;6.60;99.90;;;;;;5106945;28;20085;-71
2021/12/13 10:01:26;;;;;;;30.73;17.58;;;6.60;99.90;;;;;;5106305;28;20071;-72
2021/12/13 10:04:10;;;;;;;32.42;18.45;;;6.60;99.90;;;;;;5098668;28;20035;-73
2021/12/13 10:06:43;;;;;;;35.60;20.33;;;6.70;99.90;;;;;;5095109;28;20094;-72
2021/12/13 10:09:16;;;;;;;35.42;21.20;;;6.60;99.90;;;;;;5104531;28;20080;-73
2021/12/13 10:11:56;;;;;;;120.88;62.58;;;6.70;99.90;;;;;;5099104;28;20027;-72
2021/12/13 10:14:37;;;;;;;42.90;25.35;;;6.70;99.90;;;;;;5100420;28;20039;-73
2021/12/13 10:17:05;;;;;;;39.45;23.17;;;6.70;99.90;;;;;;5103257;28;20023;-72
2021/12/13 10:19:39;;;;;;;50.58;26.40;;;6.70;99.90;;;;;;5108105;28;20031;-73
2021/12/13 10:22:08;;;;;;;46.22;24.83;;;6.70;99.90;;;;;;5108939;28;20502;-71
2021/12/13 10:24:39;;;;;;;37.05;20.27;;;6.70;99.90;;;;;;5101511;28;20040;-72
2021/12/13 10:27:08;;;;;;;43.15;27.13;;;6.70;99.90;;;;;;5095208;28;20039;-71
2021/12/13 10:29:35;;;;;;;48.00;30.73;;;6.80;99.90;;;;;;5102685;28;20023;-71
2021/12/13 10:32:06;;;;;;;41.53;26.73;;;6.80;99.90;;;;;;5096395;28;20019;-71
2021/12/13 10:34:35;;;;;;;40.47;25.55;;;6.80;99.90;;;;;;5098072;28;20059;-71
2021/12/13 10:37:08;;;;;;;38.75;22.55;;;6.90;99.90;;;;;;5097183;28;20031;-70
2021/12/13 10:39:42;;;;;;;33.15;19.42;;;6.90;99.90;;;;;;5103785;27;20050;-72
2021/12/13 10:42:13;;;;;;;46.33;26.33;;;6.90;99.90;;;;;;5098249;28;20409;-71
2021/12/13 10:44:44;;;;;;;40.83;24.45;;;6.90;99.90;;;;;;5104109;28;20102;-70
2021/12/13 10:47:21;;;;;;;41.35;23.23;;;7.00;99.90;;;;;;5109730;28;20023;-70
2021/12/13 10:49:49;;;;;;;35.58;18.85;;;7.00;99.90;;;;;;5098947;28;20031;-71
2021/12/13 10:52:21;;;;;;;47.88;25.58;;;7.00;99.90;;;;;;5104089;28;20059;-70
2021/12/13 10:54:51;;;;;;;47.28;27.05;;;7.10;99.90;;;;;;5102626;28;20386;-70
2021/12/13 10:57:19;;;;;;;37.72;21.88;;;;;;;;;;5108831;28;20118;-70
2021/12/13 10:59:48;;;;;;;37.88;22.30;;;7.10;99.90;;;;;;5108312;28;20027;-70
2021/12/13 11:02:23;;;;;;;41.67;23.65;;;7.10;99.90;;;;;;5100969;28;20040;-70
2021/12/13 11:05:12;;;;;;;36.78;21.40;;;7.20;99.90;;;;;;4744447;28;9999829;-70
2021/12/13 11:07:39;;;;;;;36.58;20.73;;;7.10;99.90;;;;;;5097142;28;20207;-70
2021/12/13 11:10:08;;;;;;;35.75;20.65;;;7.10;99.90;;;;;;5101376;28;20024;-70
2021/12/13 11:12:41;;;;;;;37.70;21.75;;;7.10;99.90;;;;;;5102542;28;20027;-70
2021/12/13 11:15:12;;;;;;;39.55;25.23;;;7.10;99.90;;;;;;5105911;28;20039;-70
2021/12/13 11:17:39;;;;;;;34.28;20.27;;;7.10;99.90;;;;;;5104350;28;20429;-70
2021/12/13 11:20:26;;;;;;;33.95;20.50;;;7.10;99.90;;;;;;5092480;28;20039;-71
2021/12/13 11:22:54;;;;;;;33.25;17.92;;;7.10;99.90;;;;;;5104823;28;20080;-71
2021/12/13 11:25:24;;;;;;;32.95;18.95;;;7.00;99.90;;;;;;5108160;28;20109;-71
2021/12/13 11:27:50;;;;;;;31.23;19.23;;;7.10;99.90;;;;;;5099968;28;20066;-71
2021/12/13 11:30:36;;;;;;;32.55;18.83;;;7.20;99.90;;;;;;5103847;28;20495;-71
2021/12/13 11:33:44;;;;;;;32.72;20.25;;;7.20;99.90;;;;;;5095619;28;20043;-70
2021/12/13 11:36:47;;;;;;;33.95;20.05;;;7.20;99.90;;;;;;5097098;28;20028;-71
2021/12/13 11:39:24;;;;;;;32.63;18.77;;;7.10;99.90;;;;;;5098011;28;20335;-71
2021/12/13 11:41:53;;;;;;;37.38;22.33;;;7.10;99.90;;;;;;5105373;28;20028;-70
2021/12/13 11:44:35;;;;;;;37.50;23.73;;;;;;;;;;5099802;27;20042;-70
2021/12/13 11:47:01;;;;;;;39.92;22.70;;;;;;;;;;5096277;28;20027;-70
2021/12/13 11:49:42;;;;;;;35.45;21.60;;;;;;;;;;5092279;28;20050;-70
2021/12/13 11:52:17;;;;;;;32.05;19.85;;;;;;;;;;5096023;28;20054;-71
2021/12/13 11:55:07;;;;;;;35.10;21.73;;;;;;;;;;5097867;28;20020;-70
2021/12/13 11:57:33;;;;;;;30.17;17.63;;;;;;;;;;5091006;28;20043;-70
2021/12/13 12:00:06;;;;;;;30.63;17.67;;;;;;;;;;5094392;28;20036;-70
2021/12/13 12:02:50;;;;;;;32.22;17.95;;;;;;;;;;5093721;28;20118;-70
2021/12/13 12:05:37;;;;;;;36.28;20.80;;;;;;;;;;5097199;28;20040;-71
2021/12/13 12:08:25;;;;;;;36.80;22.45;;;;;;;;;;5102783;27;20055;-71
2021/12/13 12:11:06;;;;;;;30.65;18.13;;;;;;;;;;5095810;28;20024;-71
2021/12/13 12:13:39;;;;;;;27.25;16.70;;;;;;;;;;5103593;28;20065;-70
2021/12/13 12:16:06;;;;;;;31.20;17.15;;;7.10;99.90;;;;;;5103612;28;20032;-70
2021/12/13 12:18:39;;;;;;;32.20;17.77;;;7.10;99.90;;;;;;5103353;28;20043;-70
2021/12/13 12:21:35;;;;;;;30.05;17.40;;;7.10;99.90;;;;;;5099619;28;20046;-70
2021/12/13 12:24:21;;;;;;;32.72;18.45;;;7.10;99.90;;;;;;5098643;27;20546;-71
2021/12/13 12:26:54;;;;;;;30.10;17.30;;;7.20;99.90;;;;;;5101744;28;20043;-69
2021/12/13 12:29:25;;;;;;;;;;;7.20;99.90;;;;;;5106569;28;20439;-70
2021/12/13 12:32:16;;;;;;;28.40;17.52;;;7.10;99.90;;;;;;5053997;28;20431;-72
2021/12/13 12:35:06;;;;;;;32.70;20.23;;;7.10;99.90;;;;;;5038072;28;20024;-71
2021/12/13 12:38:03;;;;;;;35.45;19.23;;;7.10;99.90;;;;;;5035372;28;20059;-71
2021/12/13 12:40:39;;;;;;;31.80;19.58;;;7.10;99.90;;;;;;5049105;28;20131;-71
2021/12/13 12:43:11;;;;;;;30.75;18.80;;;7.20;99.90;;;;;;5032721;28;20087;-71
2021/12/13 12:45:49;;;;;;;30.75;18.75;;;7.10;99.90;;;;;;5036603;28;20037;-72
2021/12/13 12:48:29;;;;;;;33.55;19.35;;;7.10;99.90;;;;;;5036665;28;20033;-72
2021/12/13 12:50:57;;;;;;;33.50;18.85;;;7.20;99.90;;;;;;5040194;28;20112;-71
2021/12/13 12:53:34;;;;;;;33.67;20.20;;;7.10;99.90;;;;;;5039765;28;20029;-71
2021/12/13 12:56:30;;;;;;;33.50;20.05;;;7.20;99.90;;;;;;5049175;28;20032;-71
2021/12/13 12:58:59;;;;;;;29.65;19.10;;;;;;;;;;5035655;28;20029;-72
2021/12/13 13:01:31;;;;;;;33.67;20.10;;;7.20;99.90;;;;;;5035570;28;20029;-72
2021/12/13 13:04:16;;;;;;;30.58;18.85;;;7.20;99.90;;;;;;5037754;28;20116;-72
2021/12/13 13:07:19;;;;;;;32.33;20.45;;;7.20;99.90;;;;;;5038259;28;20119;-71
2021/12/13 13:10:18;;;;;;;32.30;20.20;;;7.20;99.90;;;;;;5030372;28;20812;-72
2021/12/13 13:12:44;;;;;;;34.25;20.63;;;7.10;99.90;;;;;;5032973;28;20276;-71
2021/12/13 13:15:18;;;;;;;33.95;20.05;;;7.10;99.90;;;;;;5032579;28;20029;-71
2021/12/13 13:17:50;;;;;;;32.00;19.35;;;7.10;99.90;;;;;;5042406;28;20551;-71
2021/12/13 13:20:38;;;;;;;29.38;18.77;;;7.20;99.90;;;;;;5042451;28;20392;-71
2021/12/13 13:23:05;;;;;;;28.75;18.13;;;7.20;99.90;;;;;;5038367;28;20749;-71
2021/12/13 13:25:44;;;;;;;32.33;19.30;;;7.20;99.90;;;;;;5042571;28;20044;-71
2021/12/13 13:28:23;;;;;;;31.08;18.60;;;7.10;99.90;;;;;;5043086;28;20032;-71
2021/12/13 13:31:18;;;;;;;28.52;16.98;;;7.10;99.90;;;;;;5042113;28;20053;-71
2021/12/13 13:33:51;;;;;;;30.95;18.90;;;7.10;99.90;;;;;;5037493;28;20493;-72
2021/12/13 13:36:27;;;;;;;34.00;19.98;;;7.20;99.90;;;;;;5049107;28;20427;-71